Jomi — C6VK4 — position and weather

sailwx.info

Track history (hours):
 
Tides and Currents Weather Stations Pressure Air Temp Water Temp Dewpoint Dewpoint Depression Visibility Wind Speed Wind Dir Waves Ship Positions

Jomi

Last reported at 2015-Aug-31 23:22 UTC. Time now 2015-Aug-31 23:54 UTC.
Position N 66°17' E 012°13'.

Length 88 m; draft 5.2 m.

Type: Cargo ship. MMSI: 309701000.

Date/timePositionNaut miles runAvg speedWind from/ knotsBaromVisibWave heightAir tempDewpointWater temp
2015-Aug-31 23:22N 66°17' E 012°13'8 9.3
2015-Aug-31 22:33N 66°15' E 012°31'  
2015-Aug-28 16:19N 66°13' E 012°41'8 9.9
2015-Aug-28 15:31N 66°16' E 012°22'163 8.9
2015-Aug-27 21:13N 63°52' E 009°21'711.3
2015-Aug-27 20:33N 63°45' E 009°16'9 8.6
2015-Aug-27 19:32N 63°37' E 009°26'10 9.8
2015-Aug-27 18:33N 63°38' E 009°47'1010.3
2015-Aug-27 17:33N 63°28' E 009°57'1010.4
2015-Aug-27 16:33N 63°20' E 010°09'1 0.8
2015-Aug-27 15:31N 63°19' E 010°10'0 0.0
2015-Aug-27 14:31N 63°19' E 010°10'0 0.0
2015-Aug-27 13:31N 63°19' E 010°10'0 0.0
2015-Aug-27 12:31N 63°19' E 010°10'0 0.0
2015-Aug-27 11:31N 63°19' E 010°10'0 0.0
2015-Aug-27 10:28N 63°19' E 010°10'0 0.0
2015-Aug-27 09:31N 63°19' E 010°10'0 0.0
2015-Aug-27 08:31N 63°19' E 010°10'0 0.0
2015-Aug-27 07:31N 63°19' E 010°10'0 0.0
2015-Aug-27 06:31N 63°19' E 010°10'0 0.0
2015-Aug-27 05:31N 63°19' E 010°10'0 0.0
2015-Aug-27 04:31N 63°19' E 010°10'0 0.0
2015-Aug-27 03:31N 63°19' E 010°10'0 0.0
2015-Aug-27 02:33N 63°19' E 010°10'0 0.0
2015-Aug-27 01:33N 63°19' E 010°10'0 0.0
2015-Aug-27 00:33N 63°19' E 010°10'0 0.0
2015-Aug-26 23:33N 63°19' E 010°10'0 0.0
2015-Aug-26 22:33N 63°19' E 010°10'0 0.0
2015-Aug-26 21:33N 63°19' E 010°10'0 0.0
2015-Aug-26 20:33N 63°19' E 010°10'0 0.0
2015-Aug-26 19:33N 63°19' E 010°10'0 0.0
2015-Aug-26 18:32N 63°19' E 010°10'0 0.0
2015-Aug-26 17:32N 63°19' E 010°10'0 0.0
2015-Aug-26 16:32N 63°19' E 010°10'0 0.0
2015-Aug-26 15:29N 63°19' E 010°10'0 0.0
2015-Aug-26 14:32N 63°19' E 010°10'0 0.0
2015-Aug-26 13:29N 63°19' E 010°10'0 0.0
2015-Aug-26 12:32N 63°19' E 010°10'0 0.0
2015-Aug-26 11:32N 63°19' E 010°10'0 0.0
2015-Aug-26 10:32N 63°19' E 010°10'0 0.0
2015-Aug-26 09:29N 63°19' E 010°10'0 0.0
2015-Aug-26 08:17N 63°19' E 010°10'0 0.0
2015-Aug-26 07:23N 63°19' E 010°10'0 0.0
2015-Aug-26 06:29N 63°19' E 010°10'0 0.0
2015-Aug-26 04:23N 63°19' E 010°10'0 0.0
2015-Aug-26 03:23N 63°19' E 010°10'0 0.0
2015-Aug-26 02:29N 63°19' E 010°10'0 0.0
2015-Aug-25 23:11N 63°19' E 010°10'0 0.0
2015-Aug-25 22:29N 63°19' E 010°10'0 0.0
2015-Aug-25 21:23N 63°19' E 010°10'0 0.0
2015-Aug-25 20:28N 63°19' E 010°10'0 0.0
2015-Aug-25 19:31N 63°19' E 010°10'0 0.0
2015-Aug-25 18:31N 63°19' E 010°10'0 0.0
2015-Aug-25 17:28N 63°19' E 010°10'0 0.0
2015-Aug-25 16:28N 63°19' E 010°10'0 0.0
2015-Aug-25 13:13N 63°19' E 010°10'0 0.0
2015-Aug-25 11:07N 63°19' E 010°10'0 0.0
2015-Aug-25 10:31N 63°19' E 010°10'0 0.0
2015-Aug-25 09:25N 63°19' E 010°10'0 0.0
2015-Aug-25 08:28N 63°19' E 010°10'0 0.0
2015-Aug-25 07:16N 63°19' E 010°10'0 0.0
2015-Aug-25 06:25N 63°19' E 010°10'0 0.0
2015-Aug-25 04:13N 63°19' E 010°10'0 0.0
2015-Aug-25 03:16N 63°19' E 010°10'0 0.0
2015-Aug-25 01:24N 63°19' E 010°10'0 0.0
2015-Aug-25 00:24N 63°19' E 010°10'0 0.0
2015-Aug-24 23:30N 63°19' E 010°10'0 0.0
2015-Aug-24 22:30N 63°19' E 010°10'0 0.0
2015-Aug-24 21:24N 63°19' E 010°10'0 0.0
2015-Aug-24 20:27N 63°19' E 010°10'0 0.0
2015-Aug-24 19:33N 63°19' E 010°10'0 0.0
2015-Aug-24 18:30N 63°19' E 010°10'0 0.0
2015-Aug-24 17:30N 63°19' E 010°10'0 0.0
2015-Aug-24 16:30N 63°19' E 010°10'0 0.0
2015-Aug-24 15:30N 63°19' E 010°10'0 0.0
2015-Aug-24 14:30N 63°19' E 010°10'0 0.0
2015-Aug-24 13:33N 63°19' E 010°10'0 0.0
2015-Aug-24 12:30N 63°19' E 010°10'0 0.0
2015-Aug-24 11:30N 63°19' E 010°10'0 0.0
2015-Aug-24 10:30N 63°19' E 010°10'0 0.0
2015-Aug-24 09:32N 63°19' E 010°10'0 0.0
2015-Aug-24 07:32N 63°19' E 010°10'0 0.3
2015-Aug-24 06:33N 63°19' E 010°10'8 7.8
2015-Aug-24 05:33N 63°26' E 010°00'9 9.3
2015-Aug-24 04:33N 63°34' E 009°50'7 7.4
2015-Aug-24 03:33N 63°38' E 009°37'298 9.6
2015-Aug-22 20:29N 59°15' E 004°41'910.3
2015-Aug-22 19:33N 59°08' E 004°52'1111.2
2015-Aug-22 18:33N 58°58' E 005°03'1111.3
2015-Aug-22 17:33N 58°49' E 005°15'2211.0
2015-Aug-22 15:32N 58°30' E 005°38'1010.2
2015-Aug-22 14:33N 58°23' E 005°52'1010.1
2015-Aug-22 13:33N 58°16' E 006°06'1110.7
2015-Aug-22 12:34N 58°09' E 006°21'3511.5
2015-Aug-22 09:29N 57°56' E 007°23'3511.4
2015-Aug-22 06:23N 58°06' E 008°27'1212.0
2015-Aug-22 05:21N 58°13' E 008°46'1112.0
2015-Aug-22 04:27N 58°20' E 009°02'1111.9
2015-Aug-22 03:33N 58°27' E 009°18'1111.4
2015-Aug-22 02:33N 58°34' E 009°35'1111.0
2015-Aug-22 01:33N 58°41' E 009°51'1111.3
2015-Aug-22 00:33N 58°48' E 010°08'1111.2
2015-Aug-21 23:33N 58°55' E 010°25'  
Track history (hours):
 
Tides and Currents Weather Stations Pressure Air Temp Water Temp Dewpoint Dewpoint Depression Visibility Wind Speed Wind Dir Waves Ship Positions

Jomi

Last reported at 2015-Aug-31 23:22 UTC. Time now 2015-Aug-31 23:54 UTC.
Position N 66°17' E 012°13'.

Length 88 m; draft 5.2 m.

Type: Cargo ship. MMSI: 309701000.

Date/timePositionNaut miles runAvg speedWind from/ knotsBaromVisibWave heightAir tempDewpointWater temp
2015-Aug-31 23:22N 66°17' E 012°13'8 9.3
2015-Aug-31 22:33N 66°15' E 012°31'  
2015-Aug-28 16:19N 66°13' E 012°41'8 9.9
2015-Aug-28 15:31N 66°16' E 012°22'163 8.9
2015-Aug-27 21:13N 63°52' E 009°21'711.3
2015-Aug-27 20:33N 63°45' E 009°16'9 8.6
2015-Aug-27 19:32N 63°37' E 009°26'10 9.8
2015-Aug-27 18:33N 63°38' E 009°47'1010.3
2015-Aug-27 17:33N 63°28' E 009°57'1010.4
2015-Aug-27 16:33N 63°20' E 010°09'1 0.8
2015-Aug-27 15:31N 63°19' E 010°10'0 0.0
2015-Aug-27 14:31N 63°19' E 010°10'0 0.0
2015-Aug-27 13:31N 63°19' E 010°10'0 0.0
2015-Aug-27 12:31N 63°19' E 010°10'0 0.0
2015-Aug-27 11:31N 63°19' E 010°10'0 0.0
2015-Aug-27 10:28N 63°19' E 010°10'0 0.0
2015-Aug-27 09:31N 63°19' E 010°10'0 0.0
2015-Aug-27 08:31N 63°19' E 010°10'0 0.0
2015-Aug-27 07:31N 63°19' E 010°10'0 0.0
2015-Aug-27 06:31N 63°19' E 010°10'0 0.0
2015-Aug-27 05:31N 63°19' E 010°10'0 0.0
2015-Aug-27 04:31N 63°19' E 010°10'0 0.0
2015-Aug-27 03:31N 63°19' E 010°10'0 0.0
2015-Aug-27 02:33N 63°19' E 010°10'0 0.0
2015-Aug-27 01:33N 63°19' E 010°10'0 0.0
2015-Aug-27 00:33N 63°19' E 010°10'0 0.0
2015-Aug-26 23:33N 63°19' E 010°10'0 0.0
2015-Aug-26 22:33N 63°19' E 010°10'0 0.0
2015-Aug-26 21:33N 63°19' E 010°10'0 0.0
2015-Aug-26 20:33N 63°19' E 010°10'0 0.0
2015-Aug-26 19:33N 63°19' E 010°10'0 0.0
2015-Aug-26 18:32N 63°19' E 010°10'0 0.0
2015-Aug-26 17:32N 63°19' E 010°10'0 0.0
2015-Aug-26 16:32N 63°19' E 010°10'0 0.0
2015-Aug-26 15:29N 63°19' E 010°10'0 0.0
2015-Aug-26 14:32N 63°19' E 010°10'0 0.0
2015-Aug-26 13:29N 63°19' E 010°10'0 0.0
2015-Aug-26 12:32N 63°19' E 010°10'0 0.0
2015-Aug-26 11:32N 63°19' E 010°10'0 0.0
2015-Aug-26 10:32N 63°19' E 010°10'0 0.0
2015-Aug-26 09:29N 63°19' E 010°10'0 0.0
2015-Aug-26 08:17N 63°19' E 010°10'0 0.0
2015-Aug-26 07:23N 63°19' E 010°10'0 0.0
2015-Aug-26 06:29N 63°19' E 010°10'0 0.0
2015-Aug-26 04:23N 63°19' E 010°10'0 0.0
2015-Aug-26 03:23N 63°19' E 010°10'0 0.0
2015-Aug-26 02:29N 63°19' E 010°10'0 0.0
2015-Aug-25 23:11N 63°19' E 010°10'0 0.0
2015-Aug-25 22:29N 63°19' E 010°10'0 0.0
2015-Aug-25 21:23N 63°19' E 010°10'0 0.0
2015-Aug-25 20:28N 63°19' E 010°10'0 0.0
2015-Aug-25 19:31N 63°19' E 010°10'0 0.0
2015-Aug-25 18:31N 63°19' E 010°10'0 0.0
2015-Aug-25 17:28N 63°19' E 010°10'0 0.0
2015-Aug-25 16:28N 63°19' E 010°10'0 0.0
2015-Aug-25 13:13N 63°19' E 010°10'0 0.0
2015-Aug-25 11:07N 63°19' E 010°10'0 0.0
2015-Aug-25 10:31N 63°19' E 010°10'0 0.0
2015-Aug-25 09:25N 63°19' E 010°10'0 0.0
2015-Aug-25 08:28N 63°19' E 010°10'0 0.0
2015-Aug-25 07:16N 63°19' E 010°10'0 0.0
2015-Aug-25 06:25N 63°19' E 010°10'0 0.0
2015-Aug-25 04:13N 63°19' E 010°10'0 0.0
2015-Aug-25 03:16N 63°19' E 010°10'0 0.0
2015-Aug-25 01:24N 63°19' E 010°10'0 0.0
2015-Aug-25 00:24N 63°19' E 010°10'0 0.0
2015-Aug-24 23:30N 63°19' E 010°10'0 0.0
2015-Aug-24 22:30N 63°19' E 010°10'0 0.0
2015-Aug-24 21:24N 63°19' E 010°10'0 0.0
2015-Aug-24 20:27N 63°19' E 010°10'0 0.0
2015-Aug-24 19:33N 63°19' E 010°10'0 0.0
2015-Aug-24 18:30N 63°19' E 010°10'0 0.0
2015-Aug-24 17:30N 63°19' E 010°10'0 0.0
2015-Aug-24 16:30N 63°19' E 010°10'0 0.0
2015-Aug-24 15:30N 63°19' E 010°10'0 0.0
2015-Aug-24 14:30N 63°19' E 010°10'0 0.0
2015-Aug-24 13:33N 63°19' E 010°10'0 0.0
2015-Aug-24 12:30N 63°19' E 010°10'0 0.0
2015-Aug-24 11:30N 63°19' E 010°10'0 0.0
2015-Aug-24 10:30N 63°19' E 010°10'0 0.0
2015-Aug-24 09:32N 63°19' E 010°10'0 0.0
2015-Aug-24 07:32N 63°19' E 010°10'0 0.3
2015-Aug-24 06:33N 63°19' E 010°10'8 7.8
2015-Aug-24 05:33N 63°26' E 010°00'9 9.3
2015-Aug-24 04:33N 63°34' E 009°50'7 7.4
2015-Aug-24 03:33N 63°38' E 009°37'298 9.6
2015-Aug-22 20:29N 59°15' E 004°41'910.3
2015-Aug-22 19:33N 59°08' E 004°52'1111.2
2015-Aug-22 18:33N 58°58' E 005°03'1111.3
2015-Aug-22 17:33N 58°49' E 005°15'2211.0
2015-Aug-22 15:32N 58°30' E 005°38'1010.2
2015-Aug-22 14:33N 58°23' E 005°52'1010.1
2015-Aug-22 13:33N 58°16' E 006°06'1110.7
2015-Aug-22 12:34N 58°09' E 006°21'3511.5
2015-Aug-22 09:29N 57°56' E 007°23'3511.4
2015-Aug-22 06:23N 58°06' E 008°27'1212.0
2015-Aug-22 05:21N 58°13' E 008°46'1112.0
2015-Aug-22 04:27N 58°20' E 009°02'1111.9
2015-Aug-22 03:33N 58°27' E 009°18'1111.4
2015-Aug-22 02:33N 58°34' E 009°35'1111.0
2015-Aug-22 01:33N 58°41' E 009°51'1111.3
2015-Aug-22 00:33N 58°48' E 010°08'1111.2
2015-Aug-21 23:33N 58°55' E 010°25'  

Dump ship's entire track history